createdAt,value
2018-07-02T00:00:53.540Z,73.00
2018-07-02T00:03:21.668Z,73.20
2018-07-02T00:06:01.794Z,73.30
2018-07-02T00:08:30.074Z,73.60
2018-07-02T00:10:58.274Z,73.70
2018-07-02T00:13:26.416Z,73.90
2018-07-02T00:15:54.582Z,74.00
2018-07-02T00:18:22.771Z,74.20
2018-07-02T00:20:50.924Z,74.10
2018-07-02T00:23:19.130Z,74.10
2018-07-02T00:25:47.317Z,74.10
2018-07-02T00:28:16.061Z,74.10
2018-07-02T00:30:44.212Z,74.20
2018-07-02T00:33:12.350Z,74.20
2018-07-02T00:35:40.473Z,74.60
2018-07-02T00:38:08.782Z,74.70
2018-07-02T00:40:36.864Z,74.90
2018-07-02T00:43:05.326Z,75.10
2018-07-02T00:45:33.810Z,75.40
2018-07-02T00:50:30.050Z,75.70
2018-07-02T00:52:58.246Z,75.80
2018-07-02T00:55:27.340Z,76.10
2018-07-02T00:57:56.785Z,76.20
2018-07-02T01:00:25.938Z,76.10
2018-07-02T01:02:54.182Z,76.50
2018-07-02T01:05:22.316Z,76.70
2018-07-02T01:07:51.996Z,76.90
2018-07-02T01:10:20.136Z,77.00
2018-07-02T01:12:48.894Z,77.20
2018-07-02T01:15:17.154Z,77.20
2018-07-02T01:17:45.496Z,77.50
2018-07-02T01:20:13.674Z,78.10
2018-07-02T01:22:41.844Z,77.70
2018-07-02T01:25:10.228Z,77.80
2018-07-02T01:27:39.780Z,77.80
2018-07-02T01:30:07.998Z,77.90
2018-07-02T01:32:36.124Z,77.90
2018-07-02T01:35:04.936Z,78.00
2018-07-02T01:37:35.641Z,78.10
2018-07-02T01:40:04.553Z,78.30
2018-07-02T01:42:35.966Z,79.30
2018-07-02T01:45:04.144Z,78.80
2018-07-02T01:47:32.424Z,79.20
2018-07-02T01:50:00.963Z,79.70
2018-07-02T01:52:30.520Z,79.80
2018-07-02T01:54:58.691Z,79.70
2018-07-02T01:57:27.622Z,79.90
2018-07-02T01:59:55.792Z,79.80
2018-07-02T02:02:24.002Z,79.80
2018-07-02T02:04:52.130Z,79.80
2018-07-02T02:07:20.274Z,79.80
2018-07-02T02:09:48.493Z,80.00
2018-07-02T02:12:16.867Z,80.10
2018-07-02T02:14:45.075Z,80.30
2018-07-02T02:17:13.334Z,80.30
2018-07-02T02:19:41.528Z,80.30
2018-07-02T02:22:09.802Z,80.50
2018-07-02T02:24:37.944Z,80.60
2018-07-02T02:27:06.111Z,80.70
2018-07-02T02:29:36.173Z,80.80
2018-07-02T02:32:04.327Z,80.90
2018-07-02T02:34:33.033Z,80.80
2018-07-02T02:37:01.127Z,80.90
2018-07-02T02:39:29.337Z,80.90
2018-07-02T02:41:57.454Z,81.00
2018-07-02T02:44:26.444Z,81.30
2018-07-02T02:46:55.715Z,81.60
2018-07-02T02:49:23.918Z,81.60
2018-07-02T02:51:52.097Z,82.20
2018-07-02T02:54:20.732Z,82.00
2018-07-02T02:56:49.071Z,82.30
2018-07-02T02:59:17.868Z,82.50
2018-07-02T03:01:46.566Z,82.60
2018-07-02T03:04:14.986Z,82.70
2018-07-02T03:06:44.135Z,82.90
2018-07-02T03:09:12.333Z,83.00
2018-07-02T03:11:40.515Z,83.10
2018-07-02T03:14:08.697Z,83.30
2018-07-02T03:16:37.007Z,83.30
2018-07-02T03:19:05.697Z,83.50
2018-07-02T03:21:34.941Z,83.80
2018-07-02T03:24:03.162Z,83.80
2018-07-02T03:26:31.391Z,83.90
2018-07-02T03:31:27.591Z,84.20
2018-07-02T03:33:55.747Z,84.00
2018-07-02T03:36:24.047Z,84.10
2018-07-02T03:38:52.197Z,83.80
2018-07-02T03:41:20.563Z,83.70
2018-07-02T03:43:49.731Z,83.70
2018-07-02T03:46:17.949Z,83.60
2018-07-02T03:48:46.106Z,83.80
2018-07-02T03:51:14.260Z,83.90
2018-07-02T03:53:42.487Z,83.90
2018-07-02T03:56:11.211Z,83.90
2018-07-02T03:58:39.435Z,83.80
2018-07-02T04:01:07.561Z,83.70
2018-07-02T04:03:35.728Z,83.40
2018-07-02T04:06:03.864Z,83.20
2018-07-02T04:08:32.024Z,83.10
2018-07-02T04:11:00.255Z,83.00
2018-07-02T04:13:28.421Z,82.80
2018-07-02T04:15:56.648Z,82.60
2018-07-02T04:18:24.958Z,82.70
2018-07-02T04:20:53.205Z,82.40
2018-07-02T04:23:22.218Z,82.60
2018-07-02T04:25:50.406Z,82.10
2018-07-02T04:28:19.161Z,81.90
2018-07-02T04:30:47.289Z,81.70
2018-07-02T04:33:15.442Z,81.50
2018-07-02T04:35:43.708Z,81.50
2018-07-02T04:38:11.908Z,81.10
2018-07-02T04:40:40.098Z,80.90
2018-07-02T04:43:08.207Z,80.70
2018-07-02T04:45:36.354Z,80.80
2018-07-02T04:48:05.701Z,80.70
2018-07-02T04:50:33.268Z,80.40
2018-07-02T04:53:01.468Z,80.20
2018-07-02T04:55:30.452Z,78.10
2018-07-02T04:57:58.630Z,72.60
2018-07-02T05:00:26.883Z,66.70
2018-07-02T05:02:55.876Z,60.50
2018-07-02T05:05:24.028Z,57.10
2018-07-02T05:07:52.188Z,53.10
2018-07-02T05:10:20.331Z,50.70
2018-07-02T05:12:48.539Z,48.20
2018-07-02T05:15:16.735Z,46.20
2018-07-02T05:17:44.924Z,44.30
2018-07-02T05:20:14.367Z,43.10
2018-07-02T05:25:10.771Z,41.40
2018-07-02T05:27:38.969Z,41.10
2018-07-02T05:30:07.195Z,40.10
2018-07-02T05:32:35.475Z,39.80
2018-07-02T05:35:03.709Z,40.00
2018-07-02T05:37:32.030Z,39.60
2018-07-02T05:40:00.260Z,39.60
2018-07-02T05:42:30.864Z,39.40
2018-07-02T05:44:59.668Z,38.70
2018-07-02T05:47:27.964Z,38.40
2018-07-02T05:49:56.132Z,38.50
2018-07-02T05:52:24.263Z,38.40
2018-07-02T05:54:52.528Z,37.50
2018-07-02T05:57:20.631Z,37.90
2018-07-02T06:02:16.798Z,39.30
2018-07-02T06:04:44.978Z,39.10
2018-07-02T06:09:42.125Z,39.10
2018-07-02T06:12:10.371Z,39.40
2018-07-02T06:14:38.618Z,39.20
2018-07-02T06:17:06.841Z,38.80
2018-07-02T06:19:35.376Z,38.80
2018-07-02T06:22:03.516Z,38.50
2018-07-02T06:24:31.689Z,39.10
2018-07-02T06:26:59.969Z,38.50
2018-07-02T06:29:28.136Z,38.90
2018-07-02T06:31:56.320Z,38.70
2018-07-02T06:34:24.523Z,38.40
2018-07-02T06:36:52.745Z,37.30
2018-07-02T06:39:21.069Z,36.70
2018-07-02T06:41:49.355Z,36.20
2018-07-02T06:44:18.761Z,35.90
2018-07-02T06:46:46.899Z,35.80
2018-07-02T06:49:15.033Z,35.80
2018-07-02T06:51:43.271Z,36.50
2018-07-02T06:54:11.529Z,36.70
2018-07-02T06:56:39.869Z,36.70
2018-07-02T06:59:08.874Z,36.20
2018-07-02T07:01:38.431Z,35.90
2018-07-02T07:04:06.526Z,35.60
2018-07-02T07:06:34.777Z,35.80
2018-07-02T07:09:03.023Z,35.90
2018-07-02T07:11:31.229Z,35.60
2018-07-02T07:13:59.525Z,35.40
2018-07-02T07:16:28.187Z,35.00
2018-07-02T07:21:24.358Z,34.90
2018-07-02T07:23:52.477Z,34.30
2018-07-02T07:26:21.332Z,33.90
2018-07-02T07:28:50.985Z,31.70
2018-07-02T07:31:19.425Z,32.00
2018-07-02T07:33:47.583Z,31.50
2018-07-02T07:36:16.095Z,31.40
2018-07-02T07:38:44.198Z,32.50
2018-07-02T07:41:12.339Z,31.80
2018-07-02T07:43:40.443Z,31.70
2018-07-02T07:46:08.584Z,31.70
2018-07-02T07:48:36.718Z,31.70
2018-07-02T07:51:04.953Z,32.40
2018-07-02T07:53:33.106Z,32.10
2018-07-02T07:56:01.408Z,32.30
2018-07-02T07:58:30.919Z,32.80
2018-07-02T08:00:59.123Z,32.90
2018-07-02T08:03:27.267Z,33.10
2018-07-02T08:08:24.624Z,33.50
2018-07-02T08:10:52.934Z,33.60
2018-07-02T08:13:21.144Z,33.60
2018-07-02T08:15:49.302Z,33.70
2018-07-02T08:18:17.761Z,33.60
2018-07-02T08:20:45.919Z,33.40
2018-07-02T08:23:14.128Z,33.20
2018-07-02T08:25:42.330Z,33.70
2018-07-02T08:28:10.459Z,33.60
2018-07-02T08:30:39.658Z,33.80
2018-07-02T08:33:07.996Z,34.20
2018-07-02T08:35:36.118Z,34.70
2018-07-02T08:40:32.635Z,34.50
2018-07-02T08:43:01.286Z,35.70
2018-07-02T08:45:30.004Z,35.00
2018-07-02T08:47:58.184Z,34.60
2018-07-02T08:50:26.288Z,35.10
2018-07-02T08:52:54.538Z,35.80
2018-07-02T08:55:22.778Z,35.90
2018-07-02T08:57:50.924Z,35.40
2018-07-02T09:00:19.052Z,36.10
2018-07-02T09:02:47.271Z,35.80
2018-07-02T09:05:16.003Z,36.10
2018-07-02T09:07:44.140Z,36.30
2018-07-02T09:10:12.285Z,36.70
2018-07-02T09:12:41.093Z,36.10
2018-07-02T09:15:09.370Z,36.20
2018-07-02T09:17:37.580Z,36.30
2018-07-02T09:20:05.709Z,36.30
2018-07-02T09:22:33.882Z,36.00
2018-07-02T09:25:02.042Z,36.40
2018-07-02T09:27:31.796Z,36.20
2018-07-02T09:29:59.934Z,36.20
2018-07-02T09:32:28.075Z,36.50
2018-07-02T09:34:56.389Z,36.40
2018-07-02T09:37:24.538Z,36.50
2018-07-02T09:39:52.874Z,36.80
2018-07-02T09:42:21.000Z,36.50
2018-07-02T09:44:49.324Z,36.30
2018-07-02T09:47:17.636Z,36.40
2018-07-02T09:49:45.813Z,35.80
2018-07-02T09:52:14.114Z,35.00
2018-07-02T09:54:42.260Z,35.10
2018-07-02T09:57:10.593Z,35.40
2018-07-02T09:59:41.767Z,34.30
2018-07-02T10:02:10.946Z,34.20
2018-07-02T10:04:39.101Z,33.60
2018-07-02T10:07:07.269Z,33.50
2018-07-02T10:09:35.428Z,33.70
2018-07-02T10:12:03.560Z,33.60
2018-07-02T10:14:31.704Z,34.20
2018-07-02T10:16:59.940Z,33.80
2018-07-02T10:19:28.867Z,33.20
2018-07-02T10:21:57.995Z,33.40
2018-07-02T10:24:26.126Z,33.50
2018-07-02T10:29:23.348Z,34.50
2018-07-02T10:31:51.679Z,34.40
2018-07-02T10:34:19.879Z,34.40
2018-07-02T10:36:48.579Z,34.20
2018-07-02T10:39:17.628Z,33.90
2018-07-02T10:41:45.775Z,34.20
2018-07-02T10:44:13.965Z,34.40
2018-07-02T10:46:42.135Z,35.10
2018-07-02T10:49:10.263Z,35.00
2018-07-02T10:51:38.420Z,34.40
2018-07-02T10:56:34.718Z,34.50
2018-07-02T10:59:02.989Z,34.90
2018-07-02T11:01:31.132Z,34.30
2018-07-02T11:03:59.291Z,33.30
2018-07-02T11:06:27.544Z,33.00
2018-07-02T11:08:55.685Z,33.20
2018-07-02T11:11:29.284Z,33.00
2018-07-02T11:13:57.637Z,33.60
2018-07-02T11:16:26.389Z,33.00
2018-07-02T11:18:54.533Z,32.20
2018-07-02T11:21:22.683Z,31.90
2018-07-02T11:23:50.845Z,32.00
2018-07-02T11:26:19.052Z,31.80
2018-07-02T11:28:47.230Z,32.00
2018-07-02T11:31:15.427Z,32.50
2018-07-02T11:33:44.009Z,32.10
2018-07-02T11:36:15.155Z,32.50
2018-07-02T11:38:43.284Z,32.60
2018-07-02T11:41:13.419Z,33.50
2018-07-02T11:43:41.777Z,30.90
2018-07-02T11:46:10.304Z,31.20
2018-07-02T11:48:38.435Z,31.70
2018-07-02T11:51:06.593Z,32.50
2018-07-02T11:53:34.763Z,32.40
2018-07-02T11:56:02.966Z,33.20
2018-07-02T11:58:31.248Z,32.90
2018-07-02T12:03:27.535Z,33.60
2018-07-02T12:05:55.701Z,32.70
2018-07-02T12:08:23.839Z,32.60
2018-07-02T12:13:23.163Z,32.40
2018-07-02T12:15:51.320Z,32.30
2018-07-02T12:18:19.658Z,32.30
2018-07-02T12:20:47.850Z,31.20
2018-07-02T12:23:16.658Z,30.90
2018-07-02T12:25:45.759Z,31.60
2018-07-02T12:28:13.848Z,32.00
2018-07-02T12:30:42.452Z,32.20
2018-07-02T12:33:11.710Z,32.80
2018-07-02T12:35:39.873Z,32.80
2018-07-02T12:38:07.984Z,32.50
2018-07-02T12:40:36.233Z,33.10
2018-07-02T12:43:04.557Z,33.20
2018-07-02T12:45:32.852Z,33.40
2018-07-02T12:48:01.011Z,33.40
2018-07-02T12:50:29.241Z,33.70
2018-07-02T12:52:57.634Z,33.80
2018-07-02T12:55:25.768Z,34.00
2018-07-02T13:00:29.766Z,34.80
2018-07-02T13:02:57.906Z,34.20
2018-07-02T13:05:26.420Z,34.00
2018-07-02T13:07:54.689Z,33.50
2018-07-02T13:10:22.851Z,33.50
2018-07-02T13:12:51.103Z,33.20
2018-07-02T13:15:19.262Z,31.50
2018-07-02T13:17:47.713Z,31.40
2018-07-02T13:22:43.936Z,30.90
2018-07-02T13:25:12.100Z,30.10
2018-07-02T13:27:40.694Z,30.70
2018-07-02T13:32:36.879Z,31.30
2018-07-02T13:35:05.305Z,31.30
2018-07-02T13:37:33.390Z,31.40
2018-07-02T13:40:01.503Z,31.50
2018-07-02T13:42:29.686Z,31.70
2018-07-02T13:44:58.590Z,32.40
2018-07-02T13:47:26.708Z,32.90
2018-07-02T13:49:56.204Z,33.40
2018-07-02T13:52:24.366Z,33.10
2018-07-02T13:54:52.566Z,33.10
2018-07-02T13:57:21.614Z,33.20
2018-07-02T13:59:49.905Z,32.80
2018-07-02T14:02:18.264Z,32.80
2018-07-02T14:04:46.608Z,32.90
2018-07-02T14:07:14.723Z,32.90
2018-07-02T14:12:11.141Z,32.60
2018-07-02T14:14:39.967Z,32.60
2018-07-02T14:17:08.094Z,32.40
2018-07-02T14:19:36.251Z,32.30
2018-07-02T14:22:04.448Z,31.30
2018-07-02T14:24:34.100Z,30.70
2018-07-02T14:27:02.371Z,31.10
2018-07-02T14:29:30.699Z,31.20
2018-07-02T14:31:59.163Z,31.40
2018-07-02T14:34:28.692Z,31.80
2018-07-02T14:36:57.426Z,32.00
2018-07-02T14:39:26.553Z,31.70
2018-07-02T14:41:55.240Z,31.90
2018-07-02T14:44:23.307Z,31.40
2018-07-02T14:46:51.579Z,31.20
2018-07-02T14:49:21.927Z,31.40
2018-07-02T14:51:50.183Z,30.10
2018-07-02T14:54:18.354Z,30.00
2018-07-02T14:59:14.705Z,30.30
2018-07-02T15:01:44.498Z,29.80
2018-07-02T15:04:12.625Z,30.00
2018-07-02T15:06:40.746Z,29.80
2018-07-02T15:09:11.322Z,30.00
2018-07-02T15:11:41.253Z,30.00
2018-07-02T15:14:09.594Z,30.30
2018-07-02T15:16:37.703Z,30.40
2018-07-02T15:19:05.965Z,30.00
2018-07-02T15:21:34.603Z,29.90
2018-07-02T15:26:31.589Z,29.90
2018-07-02T15:31:28.931Z,29.50
2018-07-02T15:33:57.307Z,29.50
2018-07-02T15:36:25.627Z,29.20
2018-07-02T15:41:22.572Z,29.20
2018-07-02T15:43:50.815Z,29.00
2018-07-02T15:46:19.097Z,29.30
2018-07-02T15:48:47.433Z,29.70
2018-07-02T15:53:43.883Z,29.60
2018-07-02T15:56:12.175Z,30.00
2018-07-02T16:01:08.477Z,30.00
2018-07-02T16:03:37.063Z,29.70
2018-07-02T16:06:05.057Z,30.20
2018-07-02T16:08:33.359Z,29.70
2018-07-02T16:11:03.143Z,29.80
2018-07-02T16:13:31.325Z,29.90
2018-07-02T16:15:59.449Z,30.00
2018-07-02T16:20:57.225Z,29.50
2018-07-02T16:23:25.376Z,29.80
2018-07-02T16:25:54.088Z,29.60
2018-07-02T16:28:22.781Z,29.40
2018-07-02T16:30:51.010Z,29.00
2018-07-02T16:33:19.093Z,29.00
2018-07-02T16:35:47.273Z,29.10
2018-07-02T16:38:16.911Z,29.40
2018-07-02T16:40:45.011Z,29.50
2018-07-02T16:45:41.409Z,29.70
2018-07-02T16:48:09.534Z,29.60
2018-07-02T16:50:37.808Z,29.70
2018-07-02T16:53:06.162Z,29.80
2018-07-02T16:55:34.308Z,29.70
2018-07-02T16:58:03.055Z,30.00
2018-07-02T17:00:31.756Z,30.00
2018-07-02T17:02:59.934Z,30.20
2018-07-02T17:05:28.122Z,30.30
2018-07-02T17:07:56.252Z,30.60
2018-07-02T17:10:24.426Z,30.30
2018-07-02T17:12:52.568Z,30.00
2018-07-02T17:17:48.822Z,30.00
2018-07-02T17:20:16.994Z,30.10
2018-07-02T17:22:45.406Z,30.60
2018-07-02T17:25:14.590Z,30.50
2018-07-02T17:32:40.300Z,30.30
2018-07-02T17:35:09.758Z,30.00
2018-07-02T17:40:07.122Z,30.20
2018-07-02T17:42:35.555Z,30.60
2018-07-02T17:45:04.035Z,30.20
2018-07-02T17:47:32.155Z,30.50
2018-07-02T17:50:00.282Z,30.10
2018-07-02T17:52:28.446Z,30.30
2018-07-02T17:54:57.538Z,30.50
2018-07-02T17:57:25.705Z,30.10
2018-07-02T17:59:53.888Z,30.20
2018-07-02T18:02:23.363Z,30.10
2018-07-02T18:04:51.606Z,30.10
2018-07-02T18:07:19.869Z,30.30
2018-07-02T18:09:48.252Z,30.60
2018-07-02T18:12:16.348Z,30.60
2018-07-02T18:14:44.707Z,30.40
2018-07-02T18:19:41.206Z,30.40
2018-07-02T18:22:10.801Z,31.50
2018-07-02T18:24:38.941Z,32.10
2018-07-02T18:27:07.133Z,32.60
2018-07-02T18:29:35.345Z,33.20
2018-07-02T18:32:03.550Z,33.00
2018-07-02T18:34:32.038Z,33.90
2018-07-02T18:37:00.186Z,34.20
2018-07-02T18:39:28.360Z,34.60
2018-07-02T18:41:56.519Z,34.90
2018-07-02T18:44:24.746Z,35.30
2018-07-02T18:46:52.950Z,35.50
2018-07-02T18:49:21.139Z,35.80
2018-07-02T18:51:49.397Z,36.00
2018-07-02T18:54:17.571Z,36.20
2018-07-02T18:56:45.784Z,36.40
2018-07-02T18:59:14.095Z,36.60
2018-07-02T19:01:42.242Z,36.80
2018-07-02T19:04:10.537Z,37.10
2018-07-02T19:06:38.735Z,37.20
2018-07-02T19:09:08.693Z,37.50
2018-07-02T19:11:36.813Z,37.80
2018-07-02T19:16:33.330Z,38.40
2018-07-02T19:19:01.494Z,38.60
2018-07-02T19:21:29.753Z,38.90
2018-07-02T19:23:57.917Z,39.20
2018-07-02T19:26:26.217Z,39.40
2018-07-02T19:28:54.526Z,39.70
2018-07-02T19:31:23.008Z,40.00
2018-07-02T19:33:51.197Z,40.20
2018-07-02T19:36:19.814Z,40.40
2018-07-02T19:38:48.003Z,40.60
2018-07-02T19:41:16.196Z,40.90
2018-07-02T19:43:44.480Z,41.00
2018-07-02T19:46:12.741Z,41.20
2018-07-02T19:48:40.955Z,41.60
2018-07-02T19:51:10.713Z,42.40
2018-07-02T19:53:38.981Z,42.40
2018-07-02T19:56:07.207Z,42.80
2018-07-02T19:58:35.438Z,43.50
2018-07-02T20:01:03.673Z,43.60
2018-07-02T20:03:31.748Z,43.50
2018-07-02T20:05:59.938Z,43.70
2018-07-02T20:08:28.531Z,43.70
2018-07-02T20:10:56.833Z,44.00
2018-07-02T20:13:25.176Z,43.90
2018-07-02T20:15:53.332Z,43.90
2018-07-02T20:18:21.610Z,43.90
2018-07-02T20:20:49.871Z,43.90
2018-07-02T20:23:19.360Z,44.40
2018-07-02T20:25:47.734Z,44.40
2018-07-02T20:28:15.998Z,44.60
2018-07-02T20:30:46.402Z,44.50
2018-07-02T20:33:14.570Z,44.60
2018-07-02T20:35:42.826Z,44.60
2018-07-02T20:38:11.523Z,45.00
2018-07-02T20:43:07.634Z,45.60
2018-07-02T20:45:36.980Z,45.20
2018-07-02T20:48:06.066Z,45.70
2018-07-02T20:50:36.112Z,46.40
2018-07-02T20:53:04.240Z,46.60
2018-07-02T20:55:33.894Z,47.00
2018-07-02T21:00:31.371Z,47.20
2018-07-02T21:03:01.713Z,47.70
2018-07-02T21:05:30.270Z,47.90
2018-07-02T21:07:59.370Z,48.20
2018-07-02T21:10:27.712Z,48.70
2018-07-02T21:12:56.478Z,49.00
2018-07-02T21:15:24.664Z,49.20
2018-07-02T21:17:52.806Z,49.50
2018-07-02T21:20:21.570Z,49.20
2018-07-02T21:22:49.742Z,49.40
2018-07-02T21:25:18.090Z,49.80
2018-07-02T21:27:46.242Z,50.40
2018-07-02T21:30:14.438Z,51.10
2018-07-02T21:32:42.668Z,51.00
2018-07-02T21:35:11.106Z,51.30
2018-07-02T21:37:39.326Z,51.70
2018-07-02T21:40:07.605Z,52.10
2018-07-02T21:42:35.757Z,52.10
2018-07-02T21:45:04.099Z,52.40
2018-07-02T21:47:32.281Z,52.50
2018-07-02T21:50:00.460Z,52.70
2018-07-02T21:52:28.882Z,53.10
2018-07-02T21:57:25.039Z,53.60
2018-07-02T21:59:53.203Z,53.90
2018-07-02T22:02:21.403Z,54.20
2018-07-02T22:04:49.560Z,54.50
2018-07-02T22:07:17.767Z,54.90
2018-07-02T22:09:45.901Z,55.10
2018-07-02T22:12:14.086Z,55.50
2018-07-02T22:14:42.190Z,55.70
2018-07-02T22:17:10.361Z,55.90
2018-07-02T22:19:38.498Z,55.50
2018-07-02T22:22:06.703Z,55.70
2018-07-02T22:24:34.979Z,55.90
2018-07-02T22:27:03.163Z,55.70
2018-07-02T22:29:31.386Z,55.90
2018-07-02T22:31:59.565Z,55.90
2018-07-02T22:34:27.904Z,55.80
2018-07-02T22:36:56.128Z,56.10
2018-07-02T22:39:24.435Z,56.00
2018-07-02T22:41:52.792Z,56.10
2018-07-02T22:44:20.983Z,56.20
2018-07-02T22:46:49.195Z,56.20
2018-07-02T22:49:17.615Z,56.40
2018-07-02T22:51:45.711Z,56.70
2018-07-02T22:54:13.987Z,56.80
2018-07-02T22:56:42.293Z,57.00
2018-07-02T22:59:10.478Z,57.20
2018-07-02T23:01:38.787Z,57.10
2018-07-02T23:04:06.987Z,57.10
2018-07-02T23:06:35.263Z,57.10
2018-07-02T23:09:04.331Z,57.10
2018-07-02T23:11:32.667Z,57.50
2018-07-02T23:14:00.851Z,57.40
2018-07-02T23:16:29.201Z,57.60
2018-07-02T23:18:58.205Z,57.70
2018-07-02T23:21:26.339Z,57.90
2018-07-02T23:23:54.497Z,58.00
2018-07-02T23:26:22.628Z,58.10
2018-07-02T23:28:50.754Z,58.00
2018-07-02T23:31:20.049Z,58.40
2018-07-02T23:33:48.185Z,58.50
2018-07-02T23:36:16.313Z,58.70
2018-07-02T23:38:44.460Z,58.50
2018-07-02T23:41:13.649Z,58.40
2018-07-02T23:43:41.871Z,58.40
2018-07-02T23:46:10.127Z,58.40
2018-07-02T23:51:06.331Z,58.40
2018-07-02T23:53:35.271Z,58.50
2018-07-02T23:56:03.424Z,58.70
2018-07-02T23:58:31.643Z,59.00
